Time;durP1;ratioP1;P1;durP2;ratioP2;P2;SDS_P1;SDS_P2;PMS_P1;PMS_P2;Temp;Humidity;BMP_temperature;BMP_pressure;BME280_temperature;BME280_humidity;BME280_pressure;Samples;Min_cycle;Max_cycle;Signal;HPM_P1;HPM_P2
2022/06/04 00:00:26;;;;;;;4.03;2.47;;;;;;;;;;5055861;28;20177;-66
2022/06/04 00:02:52;;;;;;;3.27;2.43;;;;;;;;;;5074494;28;20207;-66
2022/06/04 00:05:20;;;;;;;3.23;2.43;;;;;;;;;;5073560;28;20181;-64
2022/06/04 00:07:46;;;;;;;3.50;2.40;;;;;;;;;;5073340;28;20665;-65
2022/06/04 00:15:44;;;;;;;4.90;2.60;;;;;;;;;;5073605;28;20581;-66
2022/06/04 00:18:10;;;;;;;4.10;2.90;;;;;;;;;;5073395;28;20260;-65
2022/06/04 00:20:36;;;;;;;4.13;2.53;;;;;;;;;;5073309;28;20181;-65
2022/06/04 00:23:04;;;;;;;3.13;2.87;;;;;;;;;;5055313;28;20245;-65
2022/06/04 00:25:31;;;;;;;2.87;2.60;;;;;;;;;;5073165;28;20601;-65
2022/06/04 00:27:57;;;;;;;3.73;2.53;;;;;;;;;;5073069;28;20209;-65
2022/06/04 00:30:23;;;;;;;4.20;2.57;;;;;;;;;;5055228;28;20255;-65
2022/06/04 00:32:49;;;;;;;4.10;2.70;;;;;;;;;;5055654;28;20209;-66
2022/06/04 00:35:16;;;;;;;4.40;2.60;;;;;;;;;;5073284;28;20209;-65
2022/06/04 00:37:42;;;;;;;3.10;2.80;;;;;;;;;;5075374;28;20202;-65
2022/06/04 00:40:09;;;;;;;3.43;2.63;;;;;;;;;;5077156;28;20177;-65
2022/06/04 00:42:35;;;;;;;3.63;2.80;;;;;;;;;;5077041;28;20196;-65
2022/06/04 00:45:20;;;;;;;3.30;3.00;;;;;;;;;;5077428;28;20177;-65
2022/06/04 00:47:46;;;;;;;3.87;2.90;;;;;;;;;;5058878;28;20270;-65
2022/06/04 00:50:12;;;;;;;5.73;3.50;;;;;;;;;;5076674;28;20646;-65
2022/06/04 00:52:38;;;;;;;4.47;3.30;;;;;;;;;;5077198;28;20542;-65
2022/06/04 00:55:05;;;;;;;5.47;4.17;;;;;;;;;;5077152;28;20315;-65
2022/06/04 00:57:31;;;;;;;10.87;4.53;;;;;;;;;;5076610;28;20254;-65
2022/06/04 00:59:57;;;;;;;7.53;4.60;;;;;;;;;;5076719;28;20261;-66
2022/06/04 01:02:32;;;;;;;11.53;5.50;;;;;;;;;;5076980;28;20261;-65
2022/06/04 01:05:04;;;;;;;6.40;4.60;;;;;;;;;;5058797;28;20185;-65
2022/06/04 01:07:30;;;;;;;8.67;4.80;;;;;;;;;;5058407;28;20201;-65
2022/06/04 01:09:59;;;;;;;6.57;4.43;;;;;;;;;;5058601;28;20189;-66
2022/06/04 01:12:37;;;;;;;6.13;3.60;;;;;;;;;;5058426;28;20654;-65
2022/06/04 01:15:29;;;;;;;8.13;3.97;;;;;;;;;;5058199;28;20198;-65
2022/06/04 01:18:00;;;;;;;8.03;3.50;;;;;;;;;;5071666;28;20219;-65
2022/06/04 01:20:34;;;;;;;3.87;3.00;;;;;;;;;;5058556;28;20258;-63
2022/06/04 01:23:08;;;;;;;3.77;3.13;;;;;;;;;;5076792;28;20517;-65
2022/06/04 01:25:46;;;;;;;5.00;3.50;;;;;;;;;;5058097;28;20215;-65
2022/06/04 01:28:15;;;;;;;6.10;3.03;;;;;;;;;;5058163;28;20270;-65
2022/06/04 01:30:42;;;;;;;3.60;3.30;;;;;;;;;;5077207;28;20224;-65
2022/06/04 01:33:15;;;;;;;3.67;3.30;;;;;;;;;;5076672;28;20264;-65
2022/06/04 01:35:47;;;;;;;4.33;3.93;;;;;;;;;;5076492;28;20264;-65
2022/06/04 01:38:13;;;;;;;4.70;3.53;;;;;;;;;;5076363;28;20243;-63
2022/06/04 01:43:28;;;;;;;3.37;3.07;;;;;;;;;;5076913;28;20215;-65
2022/06/04 01:45:56;;;;;;;4.77;3.33;;;;;;;;;;5076018;28;20522;-64
2022/06/04 01:48:24;;;;;;;4.00;3.40;;;;;;;;;;5057166;28;20201;-65
2022/06/04 01:50:55;;;;;;;4.73;3.17;;;;;;;;;;5057728;28;20182;-65
2022/06/04 01:53:23;;;;;;;3.40;3.10;;;;;;;;;;5057761;28;20177;-65
2022/06/04 01:55:53;;;;;;;5.43;3.67;;;;;;;;;;5075794;28;20233;-66
2022/06/04 01:58:22;;;;;;;3.97;3.30;;;;;;;;;;5075672;28;20197;-65
2022/06/04 02:00:53;;;;;;;4.00;3.40;;;;;;;;;;5075751;28;20257;-65
2022/06/04 02:03:21;;;;;;;6.87;3.77;;;;;;;;;;5075693;28;20161;-65
2022/06/04 02:05:49;;;;;;;6.40;3.50;;;;;;;;;;5057508;28;20185;-64
2022/06/04 02:08:18;;;;;;;5.47;3.40;;;;;;;;;;5075488;28;20209;-66
2022/06/04 02:10:50;;;;;;;5.17;3.13;;;;;;;;;;5075873;28;20186;-65
2022/06/04 02:13:16;;;;;;;4.10;3.07;;;;;;;;;;5075319;28;20249;-65
2022/06/04 02:15:44;;;;;;;10.23;3.80;;;;;;;;;;5075401;28;20570;-65
2022/06/04 02:18:11;;;;;;;6.07;3.43;;;;;;;;;;5075340;28;20197;-65
2022/06/04 02:20:37;;;;;;;3.30;3.00;;;;;;;;;;5075234;28;20227;-65
2022/06/04 02:23:04;;;;;;;5.03;2.97;;;;;;;;;;5075514;28;20174;-63
2022/06/04 02:25:30;;;;;;;4.70;3.30;;;;;;;;;;5057112;28;20178;-64
2022/06/04 02:27:57;;;;;;;5.70;3.17;;;;;;;;;;5074941;28;20216;-65
2022/06/04 02:30:25;;;;;;;3.97;3.57;;;;;;;;;;5075173;28;20230;-65
2022/06/04 02:33:10;;;;;;;5.17;3.57;;;;;;;;;;5075111;28;20186;-65
2022/06/04 02:35:44;;;;;;;4.43;3.40;;;;;;;;;;5056932;28;20205;-64
2022/06/04 02:38:13;;;;;;;4.17;3.40;;;;;;;;;;5074641;28;20190;-65
2022/06/04 02:40:43;;;;;;;3.63;3.30;;;;;;;;;;5074648;28;20182;-64
2022/06/04 02:43:29;;;;;;;4.73;3.33;;;;;;;;;;5075463;28;20174;-65
2022/06/04 02:46:04;;;;;;;3.70;3.27;;;;;;;;;;5074731;28;20174;-65
2022/06/04 02:48:34;;;;;;;3.90;3.60;;;;;;;;;;5075001;28;20193;-65
2022/06/04 02:51:04;;;;;;;6.90;3.67;;;;;;;;;;5074808;28;20540;-67
2022/06/04 02:53:32;;;;;;;4.10;3.27;;;;;;;;;;5074392;28;20173;-65
2022/06/04 02:56:00;;;;;;;3.70;3.40;;;;;;;;;;5074337;28;20258;-65
2022/06/04 02:58:28;;;;;;;6.73;3.37;;;;;;;;;;5075354;28;20189;-63
2022/06/04 03:00:56;;;;;;;4.33;3.80;;;;;;;;;;5073730;28;20721;-63
2022/06/04 03:03:23;;;;;;;5.37;3.50;;;;;;;;;;5075292;28;20215;-63
2022/06/04 03:05:53;;;;;;;3.73;3.43;;;;;;;;;;5074553;28;20592;-64
2022/06/04 03:08:20;;;;;;;6.47;3.33;;;;;;;;;;5056077;28;20202;-63
2022/06/04 03:10:46;;;;;;;5.57;3.70;;;;;;;;;;5074251;28;20185;-64
2022/06/04 03:13:12;;;;;;;6.80;4.10;;;;;;;;;;5074305;28;20638;-63
2022/06/04 03:15:38;;;;;;;5.87;3.73;;;;;;;;;;5055972;28;20666;-64
2022/06/04 03:18:04;;;;;;;4.50;3.57;;;;;;;;;;5073959;28;20255;-64
2022/06/04 03:20:30;;;;;;;4.20;3.53;;;;;;;;;;5073931;28;20178;-64
2022/06/04 03:22:56;;;;;;;4.30;3.90;;;;;;;;;;5056145;28;20256;-64
2022/06/04 03:25:22;;;;;;;4.00;3.60;;;;;;;;;;5074108;28;20638;-65
2022/06/04 03:27:48;;;;;;;5.03;3.50;;;;;;;;;;5056381;28;20217;-65
2022/06/04 03:30:14;;;;;;;4.40;4.00;;;;;;;;;;5056235;28;20201;-64
2022/06/04 03:32:41;;;;;;;4.27;3.60;;;;;;;;;;5073907;28;20232;-65
2022/06/04 03:35:08;;;;;;;4.63;3.87;;;;;;;;;;5074373;28;20233;-65
2022/06/04 03:37:34;;;;;;;4.93;4.17;;;;;;;;;;5073648;28;20197;-65
2022/06/04 03:40:01;;;;;;;6.33;3.60;;;;;;;;;;5073642;28;20260;-65
2022/06/04 03:42:26;;;;;;;4.33;3.90;;;;;;;;;;5074233;28;20169;-63
2022/06/04 03:44:52;;;;;;;6.70;4.30;;;;;;;;;;5074057;28;20245;-65
2022/06/04 03:47:19;;;;;;;5.60;4.20;;;;;;;;;;5055530;28;20206;-64
2022/06/04 03:49:45;;;;;;;5.07;4.27;;;;;;;;;;5073518;28;20244;-64
2022/06/04 03:52:11;;;;;;;7.77;3.97;;;;;;;;;;5073382;28;20208;-65
2022/06/04 03:54:52;;;;;;;4.27;3.87;;;;;;;;;;5073419;28;20208;-65
2022/06/04 03:57:38;;;;;;;4.87;4.30;;;;;;;;;;5055959;28;20209;-65
2022/06/04 04:00:09;;;;;;;4.57;4.10;;;;;;;;;;5073592;28;20253;-65
2022/06/04 04:02:36;;;;;;;4.83;3.97;;;;;;;;;;5073675;28;20169;-65
2022/06/04 04:05:02;;;;;;;5.37;4.37;;;;;;;;;;5073588;28;20200;-65
2022/06/04 04:07:28;;;;;;;4.20;3.80;;;;;;;;;;5073438;28;20208;-64
2022/06/04 04:09:54;;;;;;;8.27;4.13;;;;;;;;;;5055372;28;20268;-64
2022/06/04 04:12:20;;;;;;;5.10;4.03;;;;;;;;;;5075398;28;20178;-65
2022/06/04 04:14:46;;;;;;;4.67;4.03;;;;;;;;;;5077290;28;20262;-64
2022/06/04 04:17:12;;;;;;;5.33;4.37;;;;;;;;;;5077061;28;20274;-65
2022/06/04 04:19:38;;;;;;;4.33;3.93;;;;;;;;;;5077848;28;20182;-64
2022/06/04 04:22:04;;;;;;;5.17;3.93;;;;;;;;;;5077586;28;20703;-66
2022/06/04 04:24:30;;;;;;;5.50;4.07;;;;;;;;;;5059212;28;20174;-65
2022/06/04 04:26:56;;;;;;;4.10;3.70;;;;;;;;;;5058958;28;20263;-65
2022/06/04 04:29:22;;;;;;;6.37;4.23;;;;;;;;;;5059345;28;20188;-65
2022/06/04 04:31:48;;;;;;;4.80;4.20;;;;;;;;;;5102205;22;20316;-67
2022/06/04 04:34:14;;;;;;;4.23;3.83;;;;;;;;;;5077056;28;20170;-67
2022/06/04 04:36:40;;;;;;;5.53;3.90;;;;;;;;;;5076865;28;20197;-67
2022/06/04 04:39:06;;;;;;;7.30;4.43;;;;;;;;;;5076911;28;20227;-67
2022/06/04 04:41:32;;;;;;;3.80;3.50;;;;;;;;;;5077407;28;20284;-67
2022/06/04 04:43:58;;;;;;;4.53;3.73;;;;;;;;;;5076974;28;20174;-67
2022/06/04 04:46:24;;;;;;;6.43;4.10;;;;;;;;;;5077085;28;20256;-67
2022/06/04 04:48:50;;;;;;;5.70;4.13;;;;;;;;;;5077170;28;20239;-66
2022/06/04 04:51:20;;;;;;;5.40;4.10;;;;;;;;;;5058992;28;20205;-65
2022/06/04 04:53:47;;;;;;;5.47;3.73;;;;;;;;;;5076815;28;20746;-66
2022/06/04 04:56:17;;;;;;;4.20;3.80;;;;;;;;;;5076540;28;20201;-66
2022/06/04 04:58:43;;;;;;;5.40;4.07;;;;;;;;;;5076593;28;20177;-65
2022/06/04 05:01:20;;;;;;;4.83;4.20;;;;;;;;;;5076624;28;20189;-65
2022/06/04 05:03:46;;;;;;;6.07;4.00;;;;;;;;;;5076571;28;20177;-66
2022/06/04 05:06:13;;;;;;;5.27;3.70;;;;;;;;;;5058548;28;20709;-65
2022/06/04 05:08:39;;;;;;;5.67;4.47;;;;;;;;;;5076508;28;20205;-66
2022/06/04 05:11:07;;;;;;;5.20;3.87;;;;;;;;;;5076280;28;20665;-65
2022/06/04 05:13:33;;;;;;;5.63;3.80;;;;;;;;;;5076502;28;20251;-66
2022/06/04 05:15:59;;;;;;;5.53;4.20;;;;;;;;;;5058264;28;20678;-66
2022/06/04 05:18:25;;;;;;;5.83;3.93;;;;;;;;;;5058294;28;20173;-66
2022/06/04 05:20:51;;;;;;;5.73;4.33;;;;;;;;;;5058238;28;20189;-65
2022/06/04 05:23:17;;;;;;;4.17;3.70;;;;;;;;;;5057378;28;20177;-66
2022/06/04 05:25:44;;;;;;;5.33;3.90;;;;;;;;;;5076135;28;20227;-66
2022/06/04 05:28:10;;;;;;;4.50;4.03;;;;;;;;;;5076158;28;20178;-68
2022/06/04 05:30:36;;;;;;;5.40;4.00;;;;;;;;;;5076213;28;20544;-66
2022/06/04 05:33:02;;;;;;;4.50;4.10;;;;;;;;;;5076050;28;20330;-66
2022/06/04 05:35:28;;;;;;;4.60;3.80;;;;;;;;;;5075860;28;20280;-66
2022/06/04 05:37:54;;;;;;;4.20;3.80;;;;;;;;;;5076182;28;20263;-67
2022/06/04 05:40:20;;;;;;;4.57;4.10;;;;;;;;;;5057914;28;20254;-66
2022/06/04 05:42:46;;;;;;;3.37;2.93;;;;;;;;;;5076009;28;20189;-66
2022/06/04 05:45:12;;;;;;;4.63;4.13;;;;;;;;;;5058063;28;20217;-67
2022/06/04 05:47:38;;;;;;;6.57;4.33;;;;;;;;;;5058972;28;20518;-67
2022/06/04 05:50:04;;;;;;;4.60;3.90;;;;;;;;;;5057829;28;20189;-66
2022/06/04 05:52:30;;;;;;;5.27;4.20;;;;;;;;;;5057805;28;20198;-66
2022/06/04 05:54:56;;;;;;;4.03;3.63;;;;;;;;;;5057535;28;20284;-69
2022/06/04 05:57:22;;;;;;;5.87;4.10;;;;;;;;;;5075658;28;20189;-66
2022/06/04 05:59:49;;;;;;;4.63;4.13;;;;;;;;;;5057577;28;20174;-67
2022/06/04 06:02:15;;;;;;;5.83;4.00;;;;;;;;;;5075756;28;20193;-66
2022/06/04 06:04:41;;;;;;;5.50;3.97;;;;;;;;;;5075978;28;20731;-66
2022/06/04 06:07:07;;;;;;;4.70;3.67;;;;;;;;;;5075522;28;20174;-66
2022/06/04 06:09:33;;;;;;;5.57;4.07;;;;;;;;;;5075521;28;20307;-66
2022/06/04 06:11:59;;;;;;;7.37;4.10;;;;;;;;;;5075476;28;20194;-66
2022/06/04 06:14:25;;;;;;;4.30;3.63;;;;;;;;;;5075600;28;20181;-66
2022/06/04 06:16:52;;;;;;;4.57;3.80;;;;;;;;;;5057348;28;20174;-66
2022/06/04 06:19:19;;;;;;;4.80;4.10;;;;;;;;;;5075380;28;20257;-66
2022/06/04 06:21:45;;;;;;;6.73;4.63;;;;;;;;;;5057234;28;20205;-66
2022/06/04 06:24:11;;;;;;;4.23;3.93;;;;;;;;;;5075133;28;20184;-66
2022/06/04 06:26:45;;;;;;;4.93;4.27;;;;;;;;;;5056910;28;20185;-67
2022/06/04 06:29:11;;;;;;;5.80;4.10;;;;;;;;;;5075203;28;20165;-66
2022/06/04 06:31:37;;;;;;;4.67;4.17;;;;;;;;;;5074946;28;20563;-66
2022/06/04 06:34:03;;;;;;;5.37;4.40;;;;;;;;;;5074964;28;20205;-66
2022/06/04 06:36:29;;;;;;;5.23;4.10;;;;;;;;;;5074551;28;20224;-66
2022/06/04 06:38:56;;;;;;;5.17;3.80;;;;;;;;;;5074798;28;20174;-67
2022/06/04 06:41:23;;;;;;;9.70;4.13;;;;;;;;;;5075108;28;20198;-66
2022/06/04 06:43:50;;;;;;;6.67;4.30;;;;;;;;;;5057044;28;20231;-66
2022/06/04 06:46:16;;;;;;;5.03;4.50;;;;;;;;;;5074751;28;20251;-66
2022/06/04 06:48:42;;;;;;;4.40;4.00;;;;;;;;;;5074807;28;20174;-65
2022/06/04 06:51:09;;;;;;;5.43;4.20;;;;;;;;;;5075179;28;20194;-66
2022/06/04 06:53:35;;;;;;;4.37;3.90;;;;;;;;;;5075045;28;20513;-66
2022/06/04 06:56:08;;;;;;;4.33;3.90;;;;;;;;;;5074703;28;20285;-66
2022/06/04 06:58:34;;;;;;;7.00;4.17;;;;;;;;;;5056647;28;20177;-66
2022/06/04 07:01:00;;;;;;;5.80;4.20;;;;;;;;;;5074826;28;20174;-67
2022/06/04 07:03:26;;;;;;;6.43;3.83;;;;;;;;;;5075003;28;20208;-66
2022/06/04 07:05:53;;;;;;;5.43;4.00;;;;;;;;;;5056913;28;20189;-66
2022/06/04 07:08:20;;;;;;;4.07;3.63;;;;;;;;;;5074698;28;20182;-66
2022/06/04 07:10:46;;;;;;;3.97;3.67;;;;;;;;;;5056885;28;20200;-65
2022/06/04 07:13:12;;;;;;;4.70;4.20;;;;;;;;;;5057080;28;20186;-66
2022/06/04 07:15:38;;;;;;;5.30;4.10;;;;;;;;;;5075212;28;20254;-66
2022/06/04 07:18:04;;;;;;;4.43;3.97;;;;;;;;;;5074798;28;20264;-66
2022/06/04 07:20:30;;;;;;;5.17;4.50;;;;;;;;;;5055887;28;20184;-65
2022/06/04 07:22:56;;;;;;;7.23;3.93;;;;;;;;;;5056313;28;20197;-66
2022/06/04 07:25:22;;;;;;;5.93;4.00;;;;;;;;;;5056698;28;20243;-66
2022/06/04 07:27:48;;;;;;;4.33;3.93;;;;;;;;;;5074042;28;20618;-66
2022/06/04 07:30:14;;;;;;;4.10;3.70;;;;;;;;;;5055987;28;20268;-66
2022/06/04 07:32:41;;;;;;;4.90;3.57;;;;;;;;;;5056249;28;20248;-67
2022/06/04 07:35:07;;;;;;;5.33;4.00;;;;;;;;;;5074183;28;20364;-67
2022/06/04 07:37:33;;;;;;;6.57;4.30;;;;;;;;;;5073886;28;20261;-66
2022/06/04 07:39:59;;;;;;;4.50;3.83;;;;;;;;;;5073903;28;20545;-67
2022/06/04 07:42:27;;;;;;;4.87;4.23;;;;;;;;;;5073717;28;20189;-65
2022/06/04 07:44:53;;;;;;;4.43;3.90;;;;;;;;;;5056034;28;20190;-66
2022/06/04 07:47:19;;;;;;;4.17;3.77;;;;;;;;;;5073333;28;20177;-66
2022/06/04 07:49:45;;;;;;;4.33;3.93;;;;;;;;;;5074510;28;20192;-66
2022/06/04 07:52:11;;;;;;;4.77;4.37;;;;;;;;;;5074204;28;20201;-66
2022/06/04 07:54:38;;;;;;;5.67;3.90;;;;;;;;;;5074701;28;20181;-66
2022/06/04 07:57:05;;;;;;;4.03;3.73;;;;;;;;;;5055853;28;20216;-66
2022/06/04 07:59:30;;;;;;;5.27;4.20;;;;;;;;;;5073702;28;20180;-66
2022/06/04 08:01:56;;;;;;;5.13;3.90;;;;;;;;;;5073722;28;20277;-66
2022/06/04 08:04:22;;;;;;;4.60;3.97;;;;;;;;;;5073572;28;20190;-66
2022/06/04 08:06:48;;;;;;;5.37;4.17;;;;;;;;;;5055473;28;20188;-66
2022/06/04 08:09:14;;;;;;;4.43;3.50;;;;;;;;;;5055437;28;20182;-66
2022/06/04 08:11:40;;;;;;;3.80;3.50;;;;;;;;;;5073855;28;20198;-66
2022/06/04 08:14:08;;;;;;;5.80;4.03;;;;;;;;;;5073476;28;20552;-67
2022/06/04 08:16:36;;;;;;;4.57;4.17;;;;;;;;;;5073714;28;20247;-67
2022/06/04 08:19:02;;;;;;;4.27;3.87;;;;;;;;;;5073409;28;20267;-66
2022/06/04 08:21:28;;;;;;;7.87;4.80;;;;;;;;;;5073498;28;20194;-66
2022/06/04 08:23:54;;;;;;;5.23;4.17;;;;;;;;;;5054997;28;20177;-67
2022/06/04 08:26:20;;;;;;;4.53;3.97;;;;;;;;;;5073975;28;20215;-66
2022/06/04 08:28:45;;;;;;;4.73;4.10;;;;;;;;;;5073411;28;20182;-66
2022/06/04 08:31:14;;;;;;;5.20;4.40;;;;;;;;;;5055137;28;20586;-66
2022/06/04 08:33:41;;;;;;;6.40;4.00;;;;;;;;;;5073410;28;20180;-67
2022/06/04 08:36:07;;;;;;;4.50;4.10;;;;;;;;;;5073206;28;20194;-66
2022/06/04 08:38:34;;;;;;;6.70;4.70;;;;;;;;;;5073449;28;20630;-66
2022/06/04 08:41:01;;;;;;;5.07;4.57;;;;;;;;;;5072988;28;20177;-66
2022/06/04 08:43:45;;;;;;;4.67;4.10;;;;;;;;;;5054784;28;20208;-66
2022/06/04 08:46:21;;;;;;;5.07;4.57;;;;;;;;;;5054682;28;20170;-67
2022/06/04 08:48:47;;;;;;;5.10;4.40;;;;;;;;;;5072581;28;20646;-66
2022/06/04 08:51:18;;;;;;;5.50;4.60;;;;;;;;;;5072543;28;20208;-66
2022/06/04 08:53:45;;;;;;;5.10;4.60;;;;;;;;;;5054543;28;20596;-66
2022/06/04 08:59:11;;;;;;;5.20;4.70;;;;;;;;;;5075524;28;20634;-66
2022/06/04 09:01:55;;;;;;;7.83;5.10;;;;;;;;;;5058333;28;20197;-66
2022/06/04 09:04:33;;;;;;;5.43;4.93;;;;;;;;;;5076487;28;20173;-65
2022/06/04 09:07:02;;;;;;;5.10;4.60;;;;;;;;;;5076442;28;20177;-66
2022/06/04 09:09:38;;;;;;;5.27;4.77;;;;;;;;;;5076400;28;20185;-66
2022/06/04 09:12:10;;;;;;;6.27;5.00;;;;;;;;;;5076078;28;20559;-66
2022/06/04 09:14:44;;;;;;;8.43;5.10;;;;;;;;;;5076233;28;20212;-65
2022/06/04 09:17:10;;;;;;;5.47;4.97;;;;;;;;;;5058359;28;20544;-66
2022/06/04 09:19:37;;;;;;;6.43;4.73;;;;;;;;;;5075982;28;20177;-66
2022/06/04 09:22:04;;;;;;;5.53;4.97;;;;;;;;;;5057947;28;20213;-66
2022/06/04 09:24:30;;;;;;;5.60;4.93;;;;;;;;;;5076078;28;20250;-66
2022/06/04 09:26:59;;;;;;;5.60;5.10;;;;;;;;;;5075896;28;20219;-66
2022/06/04 09:29:42;;;;;;;5.50;4.70;;;;;;;;;;5057881;28;20273;-67
2022/06/04 09:32:08;;;;;;;8.40;5.13;;;;;;;;;;5075605;28;20213;-66
2022/06/04 09:34:38;;;;;;;9.47;4.77;;;;;;;;;;5075610;28;20185;-66
2022/06/04 09:37:05;;;;;;;5.67;4.57;;;;;;;;;;5075982;28;20541;-67
2022/06/04 09:39:33;;;;;;;5.23;4.73;;;;;;;;;;5075848;28;20642;-66
2022/06/04 09:42:01;;;;;;;5.30;4.73;;;;;;;;;;5076365;28;20194;-66
2022/06/04 09:44:28;;;;;;;6.30;5.17;;;;;;;;;;5075608;28;20637;-66
2022/06/04 09:46:59;;;;;;;5.70;4.80;;;;;;;;;;5076053;28;20194;-66
2022/06/04 09:49:36;;;;;;;9.40;4.80;;;;;;;;;;5075437;28;20184;-66
2022/06/04 09:52:15;;;;;;;4.77;4.27;;;;;;;;;;5075342;28;20216;-65
2022/06/04 09:54:42;;;;;;;5.30;4.80;;;;;;;;;;5057289;28;20235;-66
2022/06/04 09:57:24;;;;;;;4.80;4.30;;;;;;;;;;5075828;28;20170;-66
2022/06/04 09:59:54;;;;;;;5.63;5.13;;;;;;;;;;5075273;28;20162;-66
2022/06/04 10:02:20;;;;;;;5.23;4.67;;;;;;;;;;5075501;28;20204;-66
2022/06/04 10:04:48;;;;;;;10.07;4.90;;;;;;;;;;5075531;28;20170;-66
2022/06/04 10:07:29;;;;;;;5.47;4.67;;;;;;;;;;5075363;28;20174;-66
2022/06/04 10:09:58;;;;;;;6.03;4.73;;;;;;;;;;5056728;28;20257;-66
2022/06/04 10:13:42;;;;;;;5.10;4.60;;;;;;;;;;5075061;28;20743;-66
2022/06/04 10:15:16;;;;;;;6.57;4.80;;;;;;;;;;5074635;28;20205;-65
2022/06/04 10:17:42;;;;;;;5.40;4.40;;;;;;;;;;5074959;28;20178;-65
2022/06/04 10:20:24;;;;;;;6.33;4.90;;;;;;;;;;5075141;28;20173;-66
2022/06/04 10:22:50;;;;;;;5.07;4.57;;;;;;;;;;5074857;28;20198;-66
2022/06/04 10:25:43;;;;;;;8.40;5.07;;;;;;;;;;5074826;28;20258;-66
2022/06/04 10:28:25;;;;;;;5.13;4.63;;;;;;;;;;5070364;28;20201;-66
2022/06/04 10:31:11;;;;;;;4.83;4.40;;;;;;;;;;5057025;28;20185;-65
2022/06/04 10:33:50;;;;;;;6.60;4.20;;;;;;;;;;5074567;28;20193;-66
2022/06/04 10:36:17;;;;;;;5.07;4.30;;;;;;;;;;5074782;28;20189;-66
2022/06/04 10:39:04;;;;;;;6.37;5.20;;;;;;;;;;5056645;28;20267;-67
2022/06/04 10:41:41;;;;;;;6.30;4.90;;;;;;;;;;5074711;28;20212;-66
2022/06/04 10:44:26;;;;;;;5.47;4.50;;;;;;;;;;5056544;28;20691;-66
2022/06/04 10:47:12;;;;;;;5.17;4.20;;;;;;;;;;5074559;28;20181;-66
2022/06/04 10:49:46;;;;;;;4.90;4.47;;;;;;;;;;5083207;22;20309;-66
2022/06/04 10:52:23;;;;;;;6.80;4.40;;;;;;;;;;5054472;28;20174;-66
2022/06/04 10:54:52;;;;;;;6.90;5.30;;;;;;;;;;5036399;28;20170;-66
2022/06/04 10:57:21;;;;;;;5.13;4.13;;;;;;;;;;5054583;28;20170;-67
2022/06/04 10:59:52;;;;;;;6.00;4.73;;;;;;;;;;5054921;28;20224;-67
2022/06/04 11:02:28;;;;;;;13.67;5.07;;;;;;;;;;5036550;28;20622;-67
2022/06/04 11:05:03;;;;;;;7.63;5.60;;;;;;;;;;5054185;28;20189;-67
2022/06/04 11:07:29;;;;;;;7.07;4.00;;;;;;;;;;5054286;28;20166;-67
2022/06/04 11:09:55;;;;;;;5.73;4.37;;;;;;;;;;5054044;28;20301;-67
2022/06/04 11:12:30;;;;;;;6.27;4.30;;;;;;;;;;5054559;28;20232;-67
2022/06/04 11:14:59;;;;;;;4.97;4.40;;;;;;;;;;5054241;28;20300;-66
2022/06/04 11:17:25;;;;;;;5.77;5.17;;;;;;;;;;5054440;28;20189;-67
2022/06/04 11:20:10;;;;;;;6.50;4.43;;;;;;;;;;5053978;28;20190;-67
2022/06/04 11:22:38;;;;;;;6.27;4.50;;;;;;;;;;5053664;28;20185;-67
2022/06/04 11:25:24;;;;;;;4.80;4.30;;;;;;;;;;5054260;28;20182;-68
2022/06/04 11:27:51;;;;;;;5.80;5.27;;;;;;;;;;5036393;28;20174;-68
2022/06/04 11:30:19;;;;;;;4.87;4.47;;;;;;;;;;5053914;28;20245;-66
2022/06/04 11:32:56;;;;;;;8.60;4.47;;;;;;;;;;5053863;28;20217;-67
2022/06/04 11:35:41;;;;;;;4.43;4.03;;;;;;;;;;5036280;28;20627;-67
2022/06/04 11:38:12;;;;;;;5.80;4.80;;;;;;;;;;5036127;28;20178;-67
2022/06/04 11:40:45;;;;;;;4.93;3.90;;;;;;;;;;5054787;28;20201;-67
2022/06/04 11:43:14;;;;;;;6.37;4.90;;;;;;;;;;5037216;28;20178;-62
2022/06/04 11:45:44;;;;;;;5.10;4.60;;;;;;;;;;5054666;28;20179;-62
2022/06/04 11:48:29;;;;;;;5.13;4.63;;;;;;;;;;5055132;28;20178;-62
2022/06/04 11:50:55;;;;;;;4.80;4.30;;;;;;;;;;5037234;28;20225;-63
2022/06/04 11:53:28;;;;;;;5.47;4.60;;;;;;;;;;5054075;28;20205;-63
2022/06/04 11:56:01;;;;;;;4.93;4.43;;;;;;;;;;5035613;28;20285;-63
2022/06/04 11:58:45;;;;;;;5.13;4.63;;;;;;;;;;5053453;28;20170;-63
2022/06/04 12:01:16;;;;;;;6.53;5.00;;;;;;;;;;5053492;28;20544;-62
2022/06/04 12:03:46;;;;;;;6.10;5.17;;;;;;;;;;5053807;28;20169;-63
2022/06/04 12:06:15;;;;;;;5.40;4.90;;;;;;;;;;5053872;28;20526;-63
2022/06/04 12:08:51;;;;;;;4.97;4.47;;;;;;;;;;5035459;28;20193;-63
2022/06/04 12:11:22;;;;;;;6.07;4.40;;;;;;;;;;5053831;28;20193;-62
2022/06/04 12:14:02;;;;;;;5.60;3.90;;;;;;;;;;5035438;28;20265;-61
2022/06/04 12:16:34;;;;;;;6.50;3.90;;;;;;;;;;5053662;28;20194;-62
2022/06/04 12:25:19;;;;;;;5.00;4.60;;;;;;;;;;5020063;28;20193;-64
2022/06/04 12:27:59;;;;;;;5.60;4.27;;;;;;;;;;5053955;28;20186;-63
2022/06/04 12:30:31;;;;;;;5.50;4.60;;;;;;;;;;5035532;28;20210;-64
2022/06/04 12:32:57;;;;;;;6.10;4.53;;;;;;;;;;5037280;28;20178;-63
2022/06/04 12:35:24;;;;;;;5.38;4.88;;;;;;;;;;5057142;28;20406;-63
2022/06/04 12:37:55;;;;;;;7.10;5.40;;;;;;;;;;5040469;28;20202;-63
2022/06/04 12:40:24;;;;;;;5.90;4.63;;;;;;;;;;5058074;28;20202;-63
2022/06/04 12:43:02;;;;;;;5.13;4.67;;;;;;;;;;5058434;28;20171;-63
2022/06/04 12:45:33;;;;;;;4.90;4.50;;;;;;;;;;5040355;28;20198;-63
2022/06/04 12:48:00;;;;;;;5.23;4.40;;;;;;;;;;5040139;28;20202;-63
2022/06/04 12:50:29;;;;;;;4.40;4.00;;;;;;;;;;5040126;28;20240;-63
2022/06/04 12:53:03;;;;;;;5.13;3.90;;;;;;;;;;5058974;28;20197;-63
2022/06/04 12:55:32;;;;;;;5.57;4.70;;;;;;;;;;5039914;28;20597;-63
2022/06/04 12:58:01;;;;;;;5.20;4.70;;;;;;;;;;5058845;28;20357;-64
2022/06/04 13:00:40;;;;;;;6.10;4.40;;;;;;;;;;5058146;28;20198;-63
2022/06/04 13:03:09;;;;;;;5.83;4.63;;;;;;;;;;5057511;28;20170;-64
2022/06/04 13:05:55;;;;;;;4.70;4.30;;;;;;;;;;5039518;28;20182;-64
2022/06/04 13:08:21;;;;;;;4.73;4.30;;;;;;;;;;5057846;28;20209;-62
2022/06/04 13:10:49;;;;;;;5.73;4.50;;;;;;;;;;5057440;28;20198;-61
2022/06/04 13:13:15;;;;;;;3.90;3.53;;;;;;;;;;5057302;28;20183;-62
2022/06/04 13:15:55;;;;;;;4.50;4.10;;;;;;;;;;5057535;28;20256;-62
2022/06/04 13:18:29;;;;;;;4.23;3.80;;;;;;;;;;5057300;28;20185;-62
2022/06/04 13:21:00;;;;;;;4.70;4.30;;;;;;;;;;5039212;28;20209;-63
2022/06/04 13:23:26;;;;;;;4.30;3.90;;;;;;;;;;5056862;28;20654;-63
2022/06/04 13:25:55;;;;;;;6.97;3.73;;;;;;;;;;5039590;28;20186;-63
2022/06/04 13:28:36;;;;;;;3.70;3.40;;;;;;;;;;5056940;28;20269;-63
2022/06/04 13:31:03;;;;;;;5.03;4.30;;;;;;;;;;5056476;28;20658;-62
2022/06/04 13:33:29;;;;;;;4.67;3.90;;;;;;;;;;5056381;28;20186;-63
2022/06/04 13:36:00;;;;;;;5.60;3.57;;;;;;;;;;5038357;28;20299;-63
2022/06/04 13:38:26;;;;;;;4.53;3.80;;;;;;;;;;5056221;28;20468;-63
2022/06/04 13:41:03;;;;;;;4.10;3.70;;;;;;;;;;5056093;28;20198;-62
2022/06/04 13:43:29;;;;;;;4.13;3.83;;;;;;;;;;5038177;28;20178;-63
2022/06/04 13:46:05;;;;;;;4.57;3.70;;;;;;;;;;5054920;28;20302;-63
2022/06/04 13:48:31;;;;;;;3.50;3.20;;;;;;;;;;5055814;28;20646;-63
2022/06/04 13:50:57;;;;;;;4.60;3.60;;;;;;;;;;5055685;28;20222;-63
2022/06/04 13:53:25;;;;;;;4.20;3.80;;;;;;;;;;5055754;28;20232;-63
2022/06/04 13:56:02;;;;;;;4.30;3.90;;;;;;;;;;5055591;28;20202;-63
2022/06/04 13:58:28;;;;;;;4.40;4.00;;;;;;;;;;5037758;28;20261;-63
2022/06/04 14:00:55;;;;;;;5.30;3.80;;;;;;;;;;5055910;28;20222;-63
2022/06/04 14:03:30;;;;;;;4.47;3.97;;;;;;;;;;5055531;28;20174;-63
2022/06/04 14:05:56;;;;;;;5.77;3.97;;;;;;;;;;5055823;28;20162;-63
2022/06/04 14:08:24;;;;;;;4.20;3.80;;;;;;;;;;5037637;28;20253;-63
2022/06/04 14:11:09;;;;;;;3.90;3.60;;;;;;;;;;5055231;28;20202;-62
2022/06/04 14:13:40;;;;;;;3.93;3.50;;;;;;;;;;5055174;28;20178;-61
2022/06/04 14:16:14;;;;;;;4.93;3.97;;;;;;;;;;5055673;28;20294;-62
2022/06/04 14:18:53;;;;;;;4.83;4.27;;;;;;;;;;5055560;28;20173;-63
2022/06/04 14:21:32;;;;;;;4.33;3.97;;;;;;;;;;5037364;28;20186;-61
2022/06/04 14:24:10;;;;;;;4.50;4.10;;;;;;;;;;5055417;28;20205;-61
2022/06/04 14:26:55;;;;;;;5.03;3.90;;;;;;;;;;5037076;28;20178;-63
2022/06/04 14:29:29;;;;;;;4.40;4.00;;;;;;;;;;5055238;28;20194;-63
2022/06/04 14:32:05;;;;;;;4.27;3.73;;;;;;;;;;5055604;28;20653;-63
2022/06/04 14:34:35;;;;;;;4.17;3.77;;;;;;;;;;5055011;28;20232;-63
2022/06/04 14:37:01;;;;;;;5.67;4.57;;;;;;;;;;5037051;28;20756;-64
2022/06/04 14:39:29;;;;;;;4.53;4.13;;;;;;;;;;5054998;28;20198;-61
2022/06/04 14:42:02;;;;;;;4.53;4.13;;;;;;;;;;5036977;28;20213;-63
2022/06/04 14:44:28;;;;;;;4.47;4.07;;;;;;;;;;5036876;28;20167;-63
2022/06/04 14:47:04;;;;;;;4.80;3.50;;;;;;;;;;5037185;28;20603;-63
2022/06/04 14:49:56;;;;;;;6.90;4.13;;;;;;;;;;5054721;28;20681;-62
2022/06/04 14:52:43;;;;;;;5.40;3.40;;;;;;;;;;5037014;28;20270;-63
2022/06/04 14:55:19;;;;;;;4.30;3.83;;;;;;;;;;5054619;28;20268;-63
2022/06/04 14:57:54;;;;;;;4.83;4.40;;;;;;;;;;5054997;28;20633;-63
2022/06/04 15:00:38;;;;;;;4.20;3.87;;;;;;;;;;5054471;28;20273;-64
2022/06/04 15:03:19;;;;;;;4.03;3.73;;;;;;;;;;5054920;28;20182;-63
2022/06/04 15:05:52;;;;;;;3.90;3.60;;;;;;;;;;5036811;28;20196;-64
2022/06/04 15:08:27;;;;;;;4.13;3.83;;;;;;;;;;5054941;28;20611;-63
2022/06/04 15:11:02;;;;;;;5.00;3.67;;;;;;;;;;5037203;28;20255;-64
2022/06/04 15:13:35;;;;;;;3.93;3.63;;;;;;;;;;5055870;28;20227;-65
2022/06/04 15:16:08;;;;;;;3.80;3.50;;;;;;;;;;5054826;28;20201;-64